sensor_id;sensor_type;location;lat;lon;timestamp;temperature;humidity
31979;DHT22;18502;43.574;1.276;2023-05-07T00:01:37;17.30;99.90
31979;DHT22;18502;43.574;1.276;2023-05-07T00:04:03;17.30;99.90
31979;DHT22;18502;43.574;1.276;2023-05-07T00:06:29;17.40;99.90
31979;DHT22;18502;43.574;1.276;2023-05-07T00:08:56;17.40;99.90
31979;DHT22;18502;43.574;1.276;2023-05-07T00:11:22;17.30;99.90
31979;DHT22;18502;43.574;1.276;2023-05-07T00:13:48;17.30;99.90
31979;DHT22;18502;43.574;1.276;2023-05-07T00:16:13;17.30;99.90
31979;DHT22;18502;43.574;1.276;2023-05-07T00:18:39;17.40;99.90
31979;DHT22;18502;43.574;1.276;2023-05-07T00:21:05;17.30;99.90
31979;DHT22;18502;43.574;1.276;2023-05-07T00:23:30;17.30;99.90
31979;DHT22;18502;43.574;1.276;2023-05-07T00:25:56;17.30;99.90
31979;DHT22;18502;43.574;1.276;2023-05-07T00:28:22;17.30;99.90
31979;DHT22;18502;43.574;1.276;2023-05-07T00:30:47;17.30;99.90
31979;DHT22;18502;43.574;1.276;2023-05-07T00:33:13;17.20;99.90
31979;DHT22;18502;43.574;1.276;2023-05-07T00:35:39;17.20;99.90
31979;DHT22;18502;43.574;1.276;2023-05-07T00:38:04;17.30;99.90
31979;DHT22;18502;43.574;1.276;2023-05-07T00:40:30;17.30;99.90
31979;DHT22;18502;43.574;1.276;2023-05-07T00:42:56;17.20;99.90
31979;DHT22;18502;43.574;1.276;2023-05-07T00:45:28;17.10;99.90
31979;DHT22;18502;43.574;1.276;2023-05-07T00:47:55;17.10;99.90
31979;DHT22;18502;43.574;1.276;2023-05-07T00:50:22;17.10;99.90
31979;DHT22;18502;43.574;1.276;2023-05-07T00:52:48;17.20;99.90
31979;DHT22;18502;43.574;1.276;2023-05-07T00:55:14;17.10;99.90
31979;DHT22;18502;43.574;1.276;2023-05-07T00:57:40;17.00;99.90
31979;DHT22;18502;43.574;1.276;2023-05-07T01:00:08;17.00;99.90
31979;DHT22;18502;43.574;1.276;2023-05-07T01:02:35;17.00;99.90
31979;DHT22;18502;43.574;1.276;2023-05-07T01:05:02;17.00;99.90
31979;DHT22;18502;43.574;1.276;2023-05-07T01:07:29;17.00;99.90
31979;DHT22;18502;43.574;1.276;2023-05-07T01:09:56;17.00;99.90
31979;DHT22;18502;43.574;1.276;2023-05-07T01:12:22;16.90;99.90
31979;DHT22;18502;43.574;1.276;2023-05-07T01:14:48;16.90;99.90
31979;DHT22;18502;43.574;1.276;2023-05-07T01:17:16;16.90;99.90
31979;DHT22;18502;43.574;1.276;2023-05-07T01:19:42;16.90;99.90
31979;DHT22;18502;43.574;1.276;2023-05-07T01:22:09;17.00;99.90
31979;DHT22;18502;43.574;1.276;2023-05-07T01:24:37;17.00;99.90
31979;DHT22;18502;43.574;1.276;2023-05-07T01:27:03;16.90;99.90
31979;DHT22;18502;43.574;1.276;2023-05-07T01:29:29;16.90;99.90
31979;DHT22;18502;43.574;1.276;2023-05-07T01:31:57;16.80;99.90
31979;DHT22;18502;43.574;1.276;2023-05-07T01:34:25;16.70;99.90
31979;DHT22;18502;43.574;1.276;2023-05-07T01:36:53;16.70;99.90
31979;DHT22;18502;43.574;1.276;2023-05-07T01:39:19;16.70;99.90
31979;DHT22;18502;43.574;1.276;2023-05-07T01:41:45;16.80;99.90
31979;DHT22;18502;43.574;1.276;2023-05-07T01:44:12;16.80;99.90
31979;DHT22;18502;43.574;1.276;2023-05-07T01:46:39;16.60;99.90
31979;DHT22;18502;43.574;1.276;2023-05-07T01:49:04;16.70;99.90
31979;DHT22;18502;43.574;1.276;2023-05-07T01:51:30;16.70;99.90
31979;DHT22;18502;43.574;1.276;2023-05-07T01:53:56;16.60;99.90
31979;DHT22;18502;43.574;1.276;2023-05-07T01:56:24;16.70;99.90
31979;DHT22;18502;43.574;1.276;2023-05-07T01:58:50;16.60;99.90
31979;DHT22;18502;43.574;1.276;2023-05-07T02:01:16;16.60;99.90
31979;DHT22;18502;43.574;1.276;2023-05-07T02:03:42;16.50;99.90
31979;DHT22;18502;43.574;1.276;2023-05-07T02:06:07;16.50;99.90
31979;DHT22;18502;43.574;1.276;2023-05-07T02:08:33;16.60;99.90
31979;DHT22;18502;43.574;1.276;2023-05-07T02:10:59;16.50;99.90
31979;DHT22;18502;43.574;1.276;2023-05-07T02:13:28;16.50;99.90
31979;DHT22;18502;43.574;1.276;2023-05-07T02:15:54;16.50;99.90
31979;DHT22;18502;43.574;1.276;2023-05-07T02:18:19;16.60;99.90
31979;DHT22;18502;43.574;1.276;2023-05-07T02:20:45;16.40;99.90
31979;DHT22;18502;43.574;1.276;2023-05-07T02:23:11;16.50;99.90
31979;DHT22;18502;43.574;1.276;2023-05-07T02:25:37;16.60;99.90
31979;DHT22;18502;43.574;1.276;2023-05-07T02:28:03;16.60;99.90
31979;DHT22;18502;43.574;1.276;2023-05-07T02:30:29;16.60;99.90
31979;DHT22;18502;43.574;1.276;2023-05-07T02:32:54;16.70;99.90
31979;DHT22;18502;43.574;1.276;2023-05-07T02:35:20;16.60;99.90
31979;DHT22;18502;43.574;1.276;2023-05-07T02:37:46;16.60;99.90
31979;DHT22;18502;43.574;1.276;2023-05-07T02:40:12;16.50;99.90
31979;DHT22;18502;43.574;1.276;2023-05-07T02:42:37;16.50;99.90
31979;DHT22;18502;43.574;1.276;2023-05-07T02:45:03;16.50;99.90
31979;DHT22;18502;43.574;1.276;2023-05-07T02:47:29;16.50;99.90
31979;DHT22;18502;43.574;1.276;2023-05-07T02:49:55;16.50;99.90
31979;DHT22;18502;43.574;1.276;2023-05-07T02:52:21;16.40;99.90
31979;DHT22;18502;43.574;1.276;2023-05-07T02:54:47;16.40;99.90
31979;DHT22;18502;43.574;1.276;2023-05-07T02:57:13;16.40;99.90
31979;DHT22;18502;43.574;1.276;2023-05-07T02:59:39;16.40;99.90
31979;DHT22;18502;43.574;1.276;2023-05-07T03:02:04;16.40;99.90
31979;DHT22;18502;43.574;1.276;2023-05-07T03:04:31;16.30;99.90
31979;DHT22;18502;43.574;1.276;2023-05-07T03:06:56;16.40;99.90
31979;DHT22;18502;43.574;1.276;2023-05-07T03:09:22;16.30;99.90
31979;DHT22;18502;43.574;1.276;2023-05-07T03:11:47;16.30;99.90
31979;DHT22;18502;43.574;1.276;2023-05-07T03:14:13;16.30;99.90
31979;DHT22;18502;43.574;1.276;2023-05-07T03:16:40;16.30;99.90
31979;DHT22;18502;43.574;1.276;2023-05-07T03:19:05;16.30;99.90
31979;DHT22;18502;43.574;1.276;2023-05-07T03:21:31;16.30;99.90
31979;DHT22;18502;43.574;1.276;2023-05-07T03:23:59;16.30;99.90
31979;DHT22;18502;43.574;1.276;2023-05-07T03:26:25;16.30;99.90
31979;DHT22;18502;43.574;1.276;2023-05-07T03:28:51;16.30;99.90
31979;DHT22;18502;43.574;1.276;2023-05-07T03:31:17;16.20;99.90
31979;DHT22;18502;43.574;1.276;2023-05-07T03:33:53;16.30;99.90
31979;DHT22;18502;43.574;1.276;2023-05-07T03:36:19;16.30;99.90
31979;DHT22;18502;43.574;1.276;2023-05-07T03:38:44;16.20;99.90
31979;DHT22;18502;43.574;1.276;2023-05-07T03:41:10;16.10;99.90
31979;DHT22;18502;43.574;1.276;2023-05-07T03:43:36;16.20;99.90
31979;DHT22;18502;43.574;1.276;2023-05-07T03:46:01;16.20;99.90
31979;DHT22;18502;43.574;1.276;2023-05-07T03:48:27;16.20;99.90
31979;DHT22;18502;43.574;1.276;2023-05-07T03:50:53;16.30;99.90
31979;DHT22;18502;43.574;1.276;2023-05-07T03:53:18;16.10;99.90
31979;DHT22;18502;43.574;1.276;2023-05-07T03:55:44;16.10;99.90
31979;DHT22;18502;43.574;1.276;2023-05-07T03:58:10;16.10;99.90
31979;DHT22;18502;43.574;1.276;2023-05-07T04:00:35;16.10;99.90
31979;DHT22;18502;43.574;1.276;2023-05-07T04:03:04;16.10;99.90
31979;DHT22;18502;43.574;1.276;2023-05-07T04:05:30;16.10;99.90
31979;DHT22;18502;43.574;1.276;2023-05-07T04:07:58;16.00;99.90
31979;DHT22;18502;43.574;1.276;2023-05-07T04:10:23;15.80;99.90
31979;DHT22;18502;43.574;1.276;2023-05-07T04:12:49;16.00;99.90
31979;DHT22;18502;43.574;1.276;2023-05-07T04:15:15;15.90;99.90
31979;DHT22;18502;43.574;1.276;2023-05-07T04:17:40;15.90;99.90
31979;DHT22;18502;43.574;1.276;2023-05-07T04:20:09;15.80;99.90
31979;DHT22;18502;43.574;1.276;2023-05-07T04:22:35;15.80;99.90
31979;DHT22;18502;43.574;1.276;2023-05-07T04:25:01;15.70;99.90
31979;DHT22;18502;43.574;1.276;2023-05-07T04:27:27;15.70;99.90
31979;DHT22;18502;43.574;1.276;2023-05-07T04:29:53;15.70;99.90
31979;DHT22;18502;43.574;1.276;2023-05-07T04:32:21;15.80;99.90
31979;DHT22;18502;43.574;1.276;2023-05-07T04:34:47;15.60;99.90
31979;DHT22;18502;43.574;1.276;2023-05-07T04:37:13;15.60;99.90
31979;DHT22;18502;43.574;1.276;2023-05-07T04:39:38;15.70;99.90
31979;DHT22;18502;43.574;1.276;2023-05-07T04:42:04;15.70;99.90
31979;DHT22;18502;43.574;1.276;2023-05-07T04:44:32;15.70;99.90
31979;DHT22;18502;43.574;1.276;2023-05-07T04:46:59;15.60;99.90
31979;DHT22;18502;43.574;1.276;2023-05-07T04:49:25;15.60;99.90
31979;DHT22;18502;43.574;1.276;2023-05-07T04:51:51;15.40;99.90
31979;DHT22;18502;43.574;1.276;2023-05-07T04:54:16;15.50;99.90
31979;DHT22;18502;43.574;1.276;2023-05-07T04:56:42;15.50;99.90
31979;DHT22;18502;43.574;1.276;2023-05-07T04:59:07;15.50;99.90
31979;DHT22;18502;43.574;1.276;2023-05-07T05:01:33;15.50;99.90
31979;DHT22;18502;43.574;1.276;2023-05-07T05:03:59;15.40;99.90
31979;DHT22;18502;43.574;1.276;2023-05-07T05:06:25;15.50;99.90
31979;DHT22;18502;43.574;1.276;2023-05-07T05:08:51;15.50;99.90
31979;DHT22;18502;43.574;1.276;2023-05-07T05:11:17;15.50;99.90
31979;DHT22;18502;43.574;1.276;2023-05-07T05:13:42;15.40;99.90
31979;DHT22;18502;43.574;1.276;2023-05-07T05:16:08;15.40;99.90
31979;DHT22;18502;43.574;1.276;2023-05-07T05:18:34;15.40;99.90
31979;DHT22;18502;43.574;1.276;2023-05-07T05:21:00;15.50;99.90
31979;DHT22;18502;43.574;1.276;2023-05-07T05:23:26;15.50;99.90
31979;DHT22;18502;43.574;1.276;2023-05-07T05:25:56;15.50;99.90
31979;DHT22;18502;43.574;1.276;2023-05-07T05:28:25;15.50;99.90
31979;DHT22;18502;43.574;1.276;2023-05-07T05:30:51;15.60;99.90
31979;DHT22;18502;43.574;1.276;2023-05-07T05:33:16;15.60;99.90
31979;DHT22;18502;43.574;1.276;2023-05-07T05:35:42;15.60;99.90
31979;DHT22;18502;43.574;1.276;2023-05-07T05:38:08;15.60;99.90
31979;DHT22;18502;43.574;1.276;2023-05-07T05:40:33;15.70;99.90
31979;DHT22;18502;43.574;1.276;2023-05-07T05:42:59;15.70;99.90
31979;DHT22;18502;43.574;1.276;2023-05-07T05:45:25;15.70;99.90
31979;DHT22;18502;43.574;1.276;2023-05-07T05:47:51;15.60;99.90
31979;DHT22;18502;43.574;1.276;2023-05-07T05:50:17;15.60;99.90
31979;DHT22;18502;43.574;1.276;2023-05-07T05:52:42;15.60;99.90
31979;DHT22;18502;43.574;1.276;2023-05-07T05:55:08;15.50;99.90
31979;DHT22;18502;43.574;1.276;2023-05-07T05:57:34;15.50;99.90
31979;DHT22;18502;43.574;1.276;2023-05-07T06:00:01;15.40;99.90
31979;DHT22;18502;43.574;1.276;2023-05-07T06:02:28;15.40;99.90
31979;DHT22;18502;43.574;1.276;2023-05-07T06:04:53;15.40;99.90
31979;DHT22;18502;43.574;1.276;2023-05-07T06:07:19;15.40;99.90
31979;DHT22;18502;43.574;1.276;2023-05-07T06:09:45;15.40;99.90
31979;DHT22;18502;43.574;1.276;2023-05-07T06:12:11;15.30;99.90
31979;DHT22;18502;43.574;1.276;2023-05-07T06:14:36;15.20;99.90
31979;DHT22;18502;43.574;1.276;2023-05-07T06:17:02;15.10;99.90
31979;DHT22;18502;43.574;1.276;2023-05-07T06:19:28;15.20;99.90
31979;DHT22;18502;43.574;1.276;2023-05-07T06:21:54;15.20;99.90
31979;DHT22;18502;43.574;1.276;2023-05-07T06:24:21;15.10;99.90
31979;DHT22;18502;43.574;1.276;2023-05-07T06:26:47;15.10;99.90
31979;DHT22;18502;43.574;1.276;2023-05-07T06:29:13;15.10;99.90
31979;DHT22;18502;43.574;1.276;2023-05-07T06:31:39;15.10;99.90
31979;DHT22;18502;43.574;1.276;2023-05-07T06:34:05;15.10;99.90
31979;DHT22;18502;43.574;1.276;2023-05-07T06:36:30;15.00;99.90
31979;DHT22;18502;43.574;1.276;2023-05-07T06:38:56;14.90;99.90
31979;DHT22;18502;43.574;1.276;2023-05-07T06:41:22;15.00;99.90
31979;DHT22;18502;43.574;1.276;2023-05-07T06:43:48;14.90;99.90
31979;DHT22;18502;43.574;1.276;2023-05-07T06:46:13;15.10;99.90
31979;DHT22;18502;43.574;1.276;2023-05-07T06:48:39;15.20;99.90
31979;DHT22;18502;43.574;1.276;2023-05-07T06:51:04;15.30;99.90
31979;DHT22;18502;43.574;1.276;2023-05-07T06:53:30;15.40;99.90
31979;DHT22;18502;43.574;1.276;2023-05-07T06:55:56;15.30;99.90
31979;DHT22;18502;43.574;1.276;2023-05-07T06:58:22;15.20;99.90
31979;DHT22;18502;43.574;1.276;2023-05-07T07:00:48;15.20;99.90
31979;DHT22;18502;43.574;1.276;2023-05-07T07:03:14;15.40;99.90
31979;DHT22;18502;43.574;1.276;2023-05-07T07:05:42;15.40;99.90
31979;DHT22;18502;43.574;1.276;2023-05-07T07:08:09;15.30;99.90
31979;DHT22;18502;43.574;1.276;2023-05-07T07:10:35;15.40;99.90
31979;DHT22;18502;43.574;1.276;2023-05-07T07:13:00;15.50;99.90
31979;DHT22;18502;43.574;1.276;2023-05-07T07:15:26;15.60;99.90
31979;DHT22;18502;43.574;1.276;2023-05-07T07:17:52;15.80;99.90
31979;DHT22;18502;43.574;1.276;2023-05-07T07:20:17;15.90;99.90
31979;DHT22;18502;43.574;1.276;2023-05-07T07:22:43;16.10;99.90
31979;DHT22;18502;43.574;1.276;2023-05-07T07:25:09;16.20;99.90
31979;DHT22;18502;43.574;1.276;2023-05-07T07:27:35;16.30;99.90
31979;DHT22;18502;43.574;1.276;2023-05-07T07:30:01;16.40;99.90
31979;DHT22;18502;43.574;1.276;2023-05-07T07:32:27;16.50;99.90
31979;DHT22;18502;43.574;1.276;2023-05-07T07:34:52;16.70;99.90
31979;DHT22;18502;43.574;1.276;2023-05-07T07:37:18;16.90;99.90
31979;DHT22;18502;43.574;1.276;2023-05-07T07:39:43;17.20;99.90
31979;DHT22;18502;43.574;1.276;2023-05-07T07:42:09;17.40;99.90
31979;DHT22;18502;43.574;1.276;2023-05-07T07:44:35;17.60;99.90
31979;DHT22;18502;43.574;1.276;2023-05-07T07:47:00;17.90;99.90
31979;DHT22;18502;43.574;1.276;2023-05-07T07:49:26;18.00;99.90
31979;DHT22;18502;43.574;1.276;2023-05-07T07:51:52;17.90;99.90
31979;DHT22;18502;43.574;1.276;2023-05-07T07:54:18;17.70;99.90
31979;DHT22;18502;43.574;1.276;2023-05-07T07:56:43;17.80;99.90
31979;DHT22;18502;43.574;1.276;2023-05-07T07:59:09;17.70;99.90
31979;DHT22;18502;43.574;1.276;2023-05-07T08:01:35;17.60;99.90
31979;DHT22;18502;43.574;1.276;2023-05-07T08:04:01;17.80;99.90
31979;DHT22;18502;43.574;1.276;2023-05-07T08:06:28;18.00;99.90
31979;DHT22;18502;43.574;1.276;2023-05-07T08:08:54;18.20;99.90
31979;DHT22;18502;43.574;1.276;2023-05-07T08:11:20;18.20;99.90
31979;DHT22;18502;43.574;1.276;2023-05-07T08:13:47;18.70;99.90
31979;DHT22;18502;43.574;1.276;2023-05-07T08:16:13;18.90;99.90
31979;DHT22;18502;43.574;1.276;2023-05-07T08:18:38;19.10;99.90
31979;DHT22;18502;43.574;1.276;2023-05-07T08:21:04;19.10;99.90
31979;DHT22;18502;43.574;1.276;2023-05-07T08:23:30;18.70;99.90
31979;DHT22;18502;43.574;1.276;2023-05-07T08:25:56;18.60;99.90
31979;DHT22;18502;43.574;1.276;2023-05-07T08:28:21;18.30;99.90
31979;DHT22;18502;43.574;1.276;2023-05-07T08:30:47;18.00;99.90
31979;DHT22;18502;43.574;1.276;2023-05-07T08:33:13;18.00;99.90
31979;DHT22;18502;43.574;1.276;2023-05-07T08:35:38;17.90;99.90
31979;DHT22;18502;43.574;1.276;2023-05-07T08:38:04;18.00;99.90
31979;DHT22;18502;43.574;1.276;2023-05-07T08:40:38;18.10;99.90
31979;DHT22;18502;43.574;1.276;2023-05-07T08:43:07;18.10;99.90
31979;DHT22;18502;43.574;1.276;2023-05-07T08:45:34;18.00;99.90
31979;DHT22;18502;43.574;1.276;2023-05-07T08:48:02;17.80;99.90
31979;DHT22;18502;43.574;1.276;2023-05-07T08:50:29;17.90;99.90
31979;DHT22;18502;43.574;1.276;2023-05-07T08:52:56;17.80;99.90
31979;DHT22;18502;43.574;1.276;2023-05-07T08:55:24;17.90;99.90
31979;DHT22;18502;43.574;1.276;2023-05-07T08:57:50;18.30;99.90
31979;DHT22;18502;43.574;1.276;2023-05-07T09:00:18;18.70;99.90
31979;DHT22;18502;43.574;1.276;2023-05-07T09:02:43;19.00;99.90
31979;DHT22;18502;43.574;1.276;2023-05-07T09:05:09;19.10;99.90
31979;DHT22;18502;43.574;1.276;2023-05-07T09:07:35;19.40;99.90
31979;DHT22;18502;43.574;1.276;2023-05-07T09:10:04;19.60;99.90
31979;DHT22;18502;43.574;1.276;2023-05-07T09:12:30;19.10;99.90
31979;DHT22;18502;43.574;1.276;2023-05-07T09:14:56;19.20;99.90
31979;DHT22;18502;43.574;1.276;2023-05-07T09:17:22;19.50;99.90
31979;DHT22;18502;43.574;1.276;2023-05-07T09:19:48;19.90;99.90
31979;DHT22;18502;43.574;1.276;2023-05-07T09:22:14;19.90;99.90
31979;DHT22;18502;43.574;1.276;2023-05-07T09:24:39;19.70;99.90
31979;DHT22;18502;43.574;1.276;2023-05-07T09:27:06;20.40;99.90
31979;DHT22;18502;43.574;1.276;2023-05-07T09:29:32;21.00;99.90
31979;DHT22;18502;43.574;1.276;2023-05-07T09:32:09;20.90;99.90
31979;DHT22;18502;43.574;1.276;2023-05-07T09:34:35;21.40;99.90
31979;DHT22;18502;43.574;1.276;2023-05-07T09:37:02;20.80;99.90
31979;DHT22;18502;43.574;1.276;2023-05-07T09:39:43;20.70;99.90
31979;DHT22;18502;43.574;1.276;2023-05-07T09:42:09;20.10;99.90
31979;DHT22;18502;43.574;1.276;2023-05-07T09:44:37;19.70;99.90
31979;DHT22;18502;43.574;1.276;2023-05-07T09:47:05;19.80;99.90
31979;DHT22;18502;43.574;1.276;2023-05-07T09:49:36;19.80;99.90
31979;DHT22;18502;43.574;1.276;2023-05-07T09:52:04;19.90;99.90
31979;DHT22;18502;43.574;1.276;2023-05-07T09:54:32;20.00;99.90
31979;DHT22;18502;43.574;1.276;2023-05-07T09:56:59;20.10;99.90
31979;DHT22;18502;43.574;1.276;2023-05-07T09:59:28;20.40;99.90
31979;DHT22;18502;43.574;1.276;2023-05-07T10:01:57;21.00;99.90
31979;DHT22;18502;43.574;1.276;2023-05-07T10:04:27;21.20;99.90
31979;DHT22;18502;43.574;1.276;2023-05-07T10:06:54;21.00;99.90
31979;DHT22;18502;43.574;1.276;2023-05-07T10:09:21;20.60;99.90
31979;DHT22;18502;43.574;1.276;2023-05-07T10:11:49;20.10;99.90
31979;DHT22;18502;43.574;1.276;2023-05-07T10:14:15;19.70;99.90
31979;DHT22;18502;43.574;1.276;2023-05-07T10:16:41;19.50;99.90
31979;DHT22;18502;43.574;1.276;2023-05-07T10:19:08;19.40;99.90
31979;DHT22;18502;43.574;1.276;2023-05-07T10:21:39;19.30;99.90
31979;DHT22;18502;43.574;1.276;2023-05-07T10:24:35;19.20;99.90
31979;DHT22;18502;43.574;1.276;2023-05-07T10:27:05;19.30;99.90
31979;DHT22;18502;43.574;1.276;2023-05-07T10:29:39;19.20;99.90
31979;DHT22;18502;43.574;1.276;2023-05-07T10:34:54;19.30;99.90
31979;DHT22;18502;43.574;1.276;2023-05-07T10:37:22;19.70;99.90
31979;DHT22;18502;43.574;1.276;2023-05-07T10:39:48;19.70;99.90
31979;DHT22;18502;43.574;1.276;2023-05-07T10:42:14;19.30;99.90
31979;DHT22;18502;43.574;1.276;2023-05-07T10:44:40;19.30;99.90
31979;DHT22;18502;43.574;1.276;2023-05-07T10:47:07;19.20;99.90
31979;DHT22;18502;43.574;1.276;2023-05-07T10:49:35;19.40;99.90
31979;DHT22;18502;43.574;1.276;2023-05-07T10:52:22;19.50;99.90
31979;DHT22;18502;43.574;1.276;2023-05-07T10:57:43;19.80;99.90
31979;DHT22;18502;43.574;1.276;2023-05-07T11:05:31;22.50;99.90
31979;DHT22;18502;43.574;1.276;2023-05-07T11:08:02;23.90;99.90
31979;DHT22;18502;43.574;1.276;2023-05-07T11:13:11;23.20;99.90
31979;DHT22;18502;43.574;1.276;2023-05-07T11:15:43;23.90;99.90
31979;DHT22;18502;43.574;1.276;2023-05-07T11:18:10;24.80;99.90
31979;DHT22;18502;43.574;1.276;2023-05-07T11:26:09;26.20;99.90
31979;DHT22;18502;43.574;1.276;2023-05-07T11:28:42;29.00;99.90
31979;DHT22;18502;43.574;1.276;2023-05-07T11:31:09;29.30;99.90
31979;DHT22;18502;43.574;1.276;2023-05-07T11:33:36;27.00;99.90
31979;DHT22;18502;43.574;1.276;2023-05-07T11:36:05;27.20;99.90
31979;DHT22;18502;43.574;1.276;2023-05-07T11:38:35;28.30;99.90
31979;DHT22;18502;43.574;1.276;2023-05-07T11:41:00;28.50;99.90
31979;DHT22;18502;43.574;1.276;2023-05-07T11:43:27;29.60;99.60
31979;DHT22;18502;43.574;1.276;2023-05-07T11:45:53;27.60;98.20
31979;DHT22;18502;43.574;1.276;2023-05-07T11:48:21;28.60;99.30
31979;DHT22;18502;43.574;1.276;2023-05-07T11:51:06;28.70;94.30
31979;DHT22;18502;43.574;1.276;2023-05-07T11:53:38;28.40;95.00
31979;DHT22;18502;43.574;1.276;2023-05-07T11:56:15;29.20;95.70
31979;DHT22;18502;43.574;1.276;2023-05-07T11:58:42;28.80;93.90
31979;DHT22;18502;43.574;1.276;2023-05-07T12:01:12;28.50;94.70
31979;DHT22;18502;43.574;1.276;2023-05-07T12:03:43;31.50;82.00
31979;DHT22;18502;43.574;1.276;2023-05-07T12:06:09;34.70;78.90
31979;DHT22;18502;43.574;1.276;2023-05-07T12:08:37;35.90;65.70
31979;DHT22;18502;43.574;1.276;2023-05-07T12:11:03;30.10;73.60
31979;DHT22;18502;43.574;1.276;2023-05-07T12:13:32;33.90;63.00
31979;DHT22;18502;43.574;1.276;2023-05-07T12:15:57;31.70;63.50
31979;DHT22;18502;43.574;1.276;2023-05-07T12:18:23;34.80;63.80
31979;DHT22;18502;43.574;1.276;2023-05-07T12:20:50;31.60;60.50
31979;DHT22;18502;43.574;1.276;2023-05-07T12:23:17;29.30;69.80
31979;DHT22;18502;43.574;1.276;2023-05-07T12:25:43;29.60;69.30
31979;DHT22;18502;43.574;1.276;2023-05-07T12:28:19;27.70;71.90
31979;DHT22;18502;43.574;1.276;2023-05-07T12:30:46;25.60;79.30
31979;DHT22;18502;43.574;1.276;2023-05-07T12:33:16;24.90;82.50
31979;DHT22;18502;43.574;1.276;2023-05-07T12:35:42;24.20;84.70
31979;DHT22;18502;43.574;1.276;2023-05-07T12:38:13;24.10;87.30
31979;DHT22;18502;43.574;1.276;2023-05-07T12:40:47;23.40;86.40
31979;DHT22;18502;43.574;1.276;2023-05-07T12:43:19;30.60;72.50
31979;DHT22;18502;43.574;1.276;2023-05-07T12:45:47;33.70;60.90
31979;DHT22;18502;43.574;1.276;2023-05-07T12:48:14;36.00;56.70
31979;DHT22;18502;43.574;1.276;2023-05-07T12:50:40;37.60;45.90
31979;DHT22;18502;43.574;1.276;2023-05-07T12:53:07;39.70;45.60
31979;DHT22;18502;43.574;1.276;2023-05-07T12:55:44;40.60;42.90
31979;DHT22;18502;43.574;1.276;2023-05-07T12:58:17;41.40;38.10
31979;DHT22;18502;43.574;1.276;2023-05-07T13:00:44;39.80;36.40
31979;DHT22;18502;43.574;1.276;2023-05-07T13:03:10;36.00;41.30
31979;DHT22;18502;43.574;1.276;2023-05-07T13:05:36;36.80;41.90
31979;DHT22;18502;43.574;1.276;2023-05-07T13:08:02;39.00;41.20
31979;DHT22;18502;43.574;1.276;2023-05-07T13:10:28;33.40;43.30
31979;DHT22;18502;43.574;1.276;2023-05-07T13:12:54;34.30;48.70
31979;DHT22;18502;43.574;1.276;2023-05-07T13:15:20;31.70;49.70
31979;DHT22;18502;43.574;1.276;2023-05-07T13:17:47;30.00;54.50
31979;DHT22;18502;43.574;1.276;2023-05-07T13:20:13;34.10;50.00
31979;DHT22;18502;43.574;1.276;2023-05-07T13:22:39;32.80;46.80
31979;DHT22;18502;43.574;1.276;2023-05-07T13:25:05;34.80;43.60
31979;DHT22;18502;43.574;1.276;2023-05-07T13:27:31;33.30;47.20
31979;DHT22;18502;43.574;1.276;2023-05-07T13:29:57;33.50;44.60
31979;DHT22;18502;43.574;1.276;2023-05-07T13:32:23;34.70;44.90
31979;DHT22;18502;43.574;1.276;2023-05-07T13:34:50;29.60;50.10
31979;DHT22;18502;43.574;1.276;2023-05-07T13:37:16;31.10;51.40
31979;DHT22;18502;43.574;1.276;2023-05-07T13:39:41;33.60;46.60
31979;DHT22;18502;43.574;1.276;2023-05-07T13:42:07;36.70;42.50
31979;DHT22;18502;43.574;1.276;2023-05-07T13:44:33;35.30;42.00
31979;DHT22;18502;43.574;1.276;2023-05-07T13:46:58;32.20;43.60
31979;DHT22;18502;43.574;1.276;2023-05-07T13:49:24;34.30;43.50
31979;DHT22;18502;43.574;1.276;2023-05-07T13:51:50;36.20;39.60
31979;DHT22;18502;43.574;1.276;2023-05-07T13:54:15;40.00;36.90
31979;DHT22;18502;43.574;1.276;2023-05-07T13:56:41;35.70;37.00
31979;DHT22;18502;43.574;1.276;2023-05-07T13:59:07;38.70;36.20
31979;DHT22;18502;43.574;1.276;2023-05-07T14:01:33;38.70;37.90
31979;DHT22;18502;43.574;1.276;2023-05-07T14:03:58;40.20;33.50
31979;DHT22;18502;43.574;1.276;2023-05-07T14:06:25;39.00;34.60
31979;DHT22;18502;43.574;1.276;2023-05-07T14:08:50;34.10;39.30
31979;DHT22;18502;43.574;1.276;2023-05-07T14:11:16;32.70;44.90
31979;DHT22;18502;43.574;1.276;2023-05-07T14:13:42;31.30;46.40
31979;DHT22;18502;43.574;1.276;2023-05-07T14:16:07;29.30;48.70
31979;DHT22;18502;43.574;1.276;2023-05-07T14:18:33;36.40;41.80
31979;DHT22;18502;43.574;1.276;2023-05-07T14:21:00;39.00;33.40
31979;DHT22;18502;43.574;1.276;2023-05-07T14:23:25;39.50;32.90
31979;DHT22;18502;43.574;1.276;2023-05-07T14:25:52;40.20;32.00
31979;DHT22;18502;43.574;1.276;2023-05-07T14:28:19;34.90;39.50
31979;DHT22;18502;43.574;1.276;2023-05-07T14:30:45;39.90;34.80
31979;DHT22;18502;43.574;1.276;2023-05-07T14:33:10;40.80;29.50
31979;DHT22;18502;43.574;1.276;2023-05-07T14:35:36;40.50;30.40
31979;DHT22;18502;43.574;1.276;2023-05-07T14:38:02;39.30;30.20
31979;DHT22;18502;43.574;1.276;2023-05-07T14:40:27;36.70;33.40
31979;DHT22;18502;43.574;1.276;2023-05-07T14:42:53;34.00;33.60
31979;DHT22;18502;43.574;1.276;2023-05-07T14:45:21;28.80;42.90
31979;DHT22;18502;43.574;1.276;2023-05-07T14:47:46;27.90;47.70
31979;DHT22;18502;43.574;1.276;2023-05-07T14:50:12;27.10;50.20
31979;DHT22;18502;43.574;1.276;2023-05-07T14:52:38;27.00;48.70
31979;DHT22;18502;43.574;1.276;2023-05-07T14:55:04;27.00;53.00
31979;DHT22;18502;43.574;1.276;2023-05-07T14:57:30;27.10;56.60
31979;DHT22;18502;43.574;1.276;2023-05-07T14:59:58;28.80;50.00
31979;DHT22;18502;43.574;1.276;2023-05-07T15:02:23;32.00;45.40
31979;DHT22;18502;43.574;1.276;2023-05-07T15:04:49;33.30;44.70
31979;DHT22;18502;43.574;1.276;2023-05-07T15:07:15;28.50;49.60
31979;DHT22;18502;43.574;1.276;2023-05-07T15:09:44;25.90;54.20
31979;DHT22;18502;43.574;1.276;2023-05-07T15:12:10;24.70;59.80
31979;DHT22;18502;43.574;1.276;2023-05-07T15:14:37;24.20;68.60
31979;DHT22;18502;43.574;1.276;2023-05-07T15:17:03;23.70;82.40
31979;DHT22;18502;43.574;1.276;2023-05-07T15:19:29;23.10;94.70
31979;DHT22;18502;43.574;1.276;2023-05-07T15:21:59;22.00;94.80
31979;DHT22;18502;43.574;1.276;2023-05-07T15:24:28;19.20;99.90
31979;DHT22;18502;43.574;1.276;2023-05-07T15:26:54;19.10;99.90
31979;DHT22;18502;43.574;1.276;2023-05-07T15:29:20;18.60;99.90
31979;DHT22;18502;43.574;1.276;2023-05-07T15:31:46;19.30;99.90
31979;DHT22;18502;43.574;1.276;2023-05-07T15:34:12;19.90;99.90
31979;DHT22;18502;43.574;1.276;2023-05-07T15:36:40;20.20;99.90
31979;DHT22;18502;43.574;1.276;2023-05-07T15:39:06;20.20;99.90
31979;DHT22;18502;43.574;1.276;2023-05-07T15:41:31;20.00;99.90
31979;DHT22;18502;43.574;1.276;2023-05-07T15:43:57;20.40;99.90
31979;DHT22;18502;43.574;1.276;2023-05-07T15:46:25;20.10;99.90